Latest Weather Observations for Century Mine

IDQ60801

Issued at 3:32 pm EST Friday 6 March 2015 (issued every 30 minutes, with the page automatically refreshed every 10 minutes)

About weather observations | Map of weather stations | Latest weather observations for QLD | Other Formats
Station Details ID: 029167 Name: CENTURY MINE Lat: -18.76 Lon: 138.71 Height: 126.8 m
Data from the previous 72 hours. | See also: Recent months at Century Mine
Date/Time
EST
Temp
°C
App
Temp
°C
Dew
Point
Rel
Hum
%
Delta-T
°C
Wind Press
QNH
hPa
Press
MSL
hPa
Rain
since 9 am
mm
Dir
 
Spd
km/h
Gust
km/h
Spd
kts
Gust
kts
06/03:30pm 40.6 37.1 8.9 15 18.6 S 17 28 9 15 1003.7 1002.8 0.0
06/03:00pm 41.1 39.5 10.3 16 18.5 SE 9 17 5 9 1003.8 1002.9 0.0
06/02:30pm 40.0 37.0 9.4 16 18.0 S 15 26 8 14 1004.1 1003.2 0.0
06/02:00pm 39.8 36.4 9.2 16 18.0 S 17 30 9 16 1004.7 1003.8 0.0
06/01:30pm 39.2 36.9 10.5 18 17.1 S 13 22 7 12 1005.2 1004.3 0.0
06/01:00pm 38.3 35.8 9.8 18 16.8 S 13 24 7 13 1005.8 1004.9 0.0
06/12:30pm 38.4 36.2 10.7 19 16.5 SSE 13 20 7 11 1006.2 1005.3 0.0
06/12:00pm 38.1 36.0 11.2 20 16.2 S 13 26 7 14 1006.8 1005.9 0.0
06/11:30am 37.1 35.6 11.8 22 15.2 SE 11 20 6 11 1007.3 1006.4 0.0
06/11:00am 36.3 34.4 11.9 23 14.7 SSE 13 22 7 12 1007.7 1006.8 0.0
06/10:30am 35.9 34.3 12.8 25 14.0 SSE 13 24 7 13 1008.1 1007.2 0.0
06/10:00am 35.2 32.9 11.6 24 14.1 S 15 22 8 12 1008.5 1007.6 0.0
06/09:30am 35.2 32.7 12.2 25 13.8 SSE 17 26 9 14 1008.5 1007.6 0.0
06/09:00am 33.5 31.9 14.0 30 12.0 SSE 15 22 8 12 1008.3 1007.4 0.0
06/08:30am 32.4 31.6 14.1 33 11.2 SSE 11 20 6 11 1008.2 1007.3 0.0
06/08:00am 29.6 33.2 21.3 61 5.6 NW 4 7 2 4 1008.0 1007.1 0.0
06/07:30am 27.1 31.8 22.7 77 3.0 N 2 7 1 4 1007.9 1007.0 0.0
06/07:00am 25.9 29.7 22.4 81 2.4 S 6 6 3 3 1007.7 1006.8 0.0
06/06:30am 25.9 30.6 22.0 79 2.6 CALM 0 0 0 0 1007.5 1006.6 0.0
06/06:00am 26.2 31.0 22.1 78 2.8 CALM 0 0 0 0 1006.9 1006.0 0.0
06/05:30am 27.0 30.6 22.4 76 3.1 NW 7 9 4 5 1006.7 1005.8 0.0
06/05:00am 27.1 31.3 21.8 73 3.6 WNW 2 6 1 3 1006.8 1005.9 0.0
06/04:30am 27.6 31.6 22.1 72 3.7 SSE 4 9 2 5 1007.1 1006.2 0.0
06/04:00am 27.5 31.0 21.8 71 3.8 W 6 9 3 5 1006.6 1005.7 0.0
06/03:30am 27.5 32.1 21.8 71 3.8 CALM 0 0 0 0 1006.7 1005.8 0.0
06/03:00am 27.6 32.0 21.4 69 4.2 CALM 0 4 0 2 1006.6 1005.7 0.0
06/02:30am 27.9 32.0 20.7 65 4.8 CALM 0 0 0 0 1006.8 1005.9 0.0
06/02:00am 28.8 31.3 21.0 62 5.2 N 9 11 5 6 1007.3 1006.4 0.0
06/01:30am 28.9 31.7 20.4 60 5.6 SSW 6 9 3 5 1007.5 1006.6 0.0
06/01:00am 29.6 32.7 20.2 57 6.2 SSW 4 9 2 5 1008.0 1007.1 0.0
06/12:30am 30.4 32.5 19.4 51 7.2 N 7 11 4 6 1008.1 1007.2 0.0
06/12:00am 30.3 33.4 20.2 54 6.7 NNW 4 7 2 4 1008.3 1007.4 0.0
 
Date/Time
EST
Temp
°C
App
Temp
°C
Dew
Point
Rel
Hum
%
Delta-T
°C
Wind Press
QNH
hPa
Press
MSL
hPa
Rain
since 9 am
mm
Dir
 
Spd
km/h
Gust
km/h
Spd
kts
Gust
kts
05/11:30pm 30.9 33.4 20.2 53 7.1 NNW 7 9 4 5 1008.3 1007.4 0.0
05/11:00pm 30.2 33.9 20.7 56 6.4 N 2 6 1 3 1008.1 1007.2 0.0
05/10:30pm 30.1 34.7 21.7 60 5.7 CALM 0 0 0 0 1007.7 1006.8 0.0
05/10:00pm 30.0 34.1 20.8 57 6.2 CALM 0 0 0 0 1007.5 1006.6 0.0
05/09:30pm 30.6 34.7 20.8 56 6.6 CALM 0 0 0 0 1007.1 1006.2 0.0
05/09:00pm 31.2 33.9 20.2 52 7.3 SW 6 7 3 4 1006.7 1005.8 0.0
05/08:30pm 32.0 35.4 19.3 47 8.4 CALM 0 6 0 3 1006.3 1005.4 0.0
05/08:00pm 33.4 34.5 16.7 36 10.7 SE 6 9 3 5 1005.9 1005.0 0.0
05/07:30pm 34.5 35.3 15.9 33 11.8 ESE 6 11 3 6 1005.6 1004.7 0.0
05/07:00pm 36.7 35.7 14.6 26 13.9 E 13 22 7 12 1005.1 1004.2 0.0
05/06:30pm 38.6 37.3 13.8 23 15.4 ESE 13 20 7 11 1004.7 1003.8 0.0
05/06:00pm 39.2 37.5 13.6 22 16.0 ESE 15 22 8 12 1004.4 1003.5 0.0
05/05:30pm 38.8 37.3 13.2 21 15.8 ESE 13 20 7 11 1004.4 1003.5 0.0
05/05:00pm 40.4 39.1 13.8 20 16.7 SSE 13 24 7 13 1004.5 1003.6 0.0
05/04:30pm 39.3 37.5 12.2 20 16.5 SE 13 20 7 11 1004.7 1003.8 0.0
05/04:00pm 39.6 37.1 12.4 20 16.7 E 17 28 9 15 1004.9 1004.0 0.0
05/03:30pm 40.5 37.9 13.2 20 17.0 ESE 19 35 10 19 1005.2 1004.3 0.0
05/03:00pm 39.2 39.7 14.9 23 15.4 ENE 6 13 3 7 1005.7 1004.8 0.0
05/02:30pm 38.0 37.6 15.2 26 14.4 NNW 11 22 6 12 1006.3 1005.4 0.0
05/02:00pm 38.2 39.0 15.9 26 14.3 ENE 6 19 3 10 1006.9 1006.0 0.0
05/01:30pm 38.6 38.8 16.8 27 14.1 N 11 17 6 9 1007.6 1006.7 0.0
05/01:00pm 37.6 38.3 16.0 28 13.8 SSW 7 17 4 9 1008.1 1007.2 0.0
05/12:30pm 37.1 37.4 16.1 29 13.4 WSW 9 15 5 8 1008.8 1007.9 0.0
05/12:00pm 36.6 37.5 16.2 29 13.1 WNW 6 11 3 6 1009.3 1008.4 0.0
05/11:30am 35.6 35.6 15.3 29 12.8 NNW 9 17 5 9 1009.7 1008.8 0.0
05/11:00am 35.1 35.4 14.9 29 12.6 NNW 7 13 4 7 1010.0 1009.1 0.0
05/10:30am 34.9 36.6 18.0 36 11.0 SSW 6 13 3 7 1010.4 1009.5 0.0
05/10:00am 33.5 35.3 19.6 44 9.2 SW 9 13 5 7 1010.4 1009.5 0.0
05/09:30am 32.9 35.3 20.8 49 8.1 WSW 9 17 5 9 1010.4 1009.5 0.0
05/09:00am 31.6 33.6 20.8 52 7.3 WSW 11 20 6 11 1010.3 1009.4 0.0
05/08:30am 30.4 32.4 21.5 59 6.0 WSW 13 20 7 11 1010.2 1009.3 0.0
05/08:00am 29.0 31.5 21.7 64 4.9 WSW 11 17 6 9 1009.7 1008.8 0.0
05/07:30am 27.2 31.3 23.2 79 2.7 SW 7 11 4 6 1009.4 1008.5 0.0
05/07:00am 25.0 29.3 22.7 87 1.6 ENE 4 7 2 4 1009.1 1008.2 0.0
05/06:30am 24.4 29.4 22.5 89 1.3 CALM 0 6 0 3 1008.9 1008.0 0.0
05/06:00am 24.0 27.9 21.9 88 1.4 SSE 4 6 2 3 1008.3 1007.4 0.0
05/05:30am 24.1 28.6 21.6 86 1.7 CALM 0 0 0 0 1008.1 1007.2 0.0
05/05:00am 24.8 29.1 21.9 84 1.9 E 2 6 1 3 1007.9 1007.0 0.0
05/04:30am 25.1 29.1 21.4 80 2.5 W 2 7 1 4 1007.9 1007.0 0.0
05/04:00am 25.0 29.6 21.7 82 2.2 CALM 0 0 0 0 1008.1 1007.2 0.0
05/03:30am 25.2 29.8 21.7 81 2.3 CALM 0 0 0 0 1008.2 1007.3 0.0
05/03:00am 25.6 29.7 20.8 75 3.2 CALM 0 0 0 0 1008.3 1007.4 0.0
05/02:30am 26.7 29.7 21.2 72 3.7 NNW 7 9 4 5 1008.4 1007.5 0.0
05/02:00am 27.0 30.0 21.3 71 3.8 NW 7 11 4 6 1008.5 1007.6 0.0
05/01:30am 26.5 31.2 21.9 76 3.1 CALM 0 0 0 0 1008.8 1007.9 0.0
05/01:00am 26.6 31.1 21.6 74 3.4 CALM 0 0 0 0 1009.1 1008.2 0.0
05/12:30am 27.0 31.6 21.7 73 3.6 CALM 0 0 0 0 1009.2 1008.3 0.0
05/12:00am 27.7 31.3 21.3 68 4.3 NNE 4 7 2 4 1009.4 1008.5 0.0
 
Date/Time
EST
Temp
°C
App
Temp
°C
Dew
Point
Rel
Hum
%
Delta-T
°C
Wind Press
QNH
hPa
Press
MSL
hPa
Rain
since 9 am
mm
Dir
 
Spd
km/h
Gust
km/h
Spd
kts
Gust
kts
04/11:30pm 28.1 32.0 20.4 63 5.1 CALM 0 0 0 0 1009.5 1008.6 0.0
04/11:00pm 29.4 32.6 18.8 53 6.9 CALM 0 0 0 0 1009.4 1008.5 0.0
04/10:30pm 30.4 32.1 18.5 49 7.7 NNE 7 9 4 5 1009.1 1008.2 0.0
04/10:00pm 30.8 32.6 18.2 47 8.1 NE 6 13 3 7 1008.7 1007.8 0.0
04/09:30pm 32.1 33.0 15.1 35 10.5 SE 4 9 2 5 1008.4 1007.5 0.0
04/09:00pm 31.0 31.8 17.3 43 8.8 SSE 9 11 5 6 1008.0 1007.1 0.0
04/08:30pm 31.2 35.5 21.1 55 6.8 CALM 0 0 0 0 1007.6 1006.7 0.0
04/08:00pm 33.0 35.2 16.4 37 10.5 CALM 0 4 0 2 1007.3 1006.4 0.0
04/07:30pm 35.7 34.4 12.6 25 14.0 ESE 11 19 6 10 1006.9 1006.0 0.0
04/07:00pm 36.7 34.3 12.8 24 14.6 ESE 17 30 9 16 1006.5 1005.6 0.0
04/06:30pm 37.2 36.0 15.1 27 13.9 E 15 24 8 13 1006.5 1005.6 0.0
04/06:00pm 38.4 35.9 14.2 23 15.2 ESE 20 33 11 18 1006.2 1005.3 0.0
04/05:30pm 38.7 36.8 15.1 24 15.0 E 19 30 10 16 1006.0 1005.1 0.0
04/05:00pm 38.6 34.9 13.8 23 15.5 E 26 43 14 23 1006.0 1005.1 0.0
04/04:30pm 38.5 35.3 14.3 23 15.2 ESE 24 39 13 21 1006.0 1005.1 0.0
04/04:00pm 39.7 35.8 13.3 21 16.4 E 26 44 14 24 1006.3 1005.4 0.0
04/03:30pm 39.6 37.2 13.9 22 16.1 E 19 30 10 16 1006.5 1005.6 0.0
04/03:00pm 39.1 36.4 13.5 22 15.9 E 20 37 11 20 1006.9 1006.0 0.0
04/02:30pm 39.3 35.7 12.9 20 16.3 ESE 24 37 13 20 1007.4 1006.5 0.0
04/02:00pm 39.6 37.7 15.2 23 15.6 E 19 30 10 16 1007.8 1006.9 0.0
04/01:30pm 38.6 38.0 15.7 26 14.6 E 13 28 7 15 1008.6 1007.7 0.0
04/01:00pm 36.2 37.0 17.4 33 12.2 NE 9 15 5 8 1009.1 1008.2 0.0
04/12:30pm 36.0 36.6 17.7 34 11.9 NE 11 20 6 11 1009.4 1008.5 0.0
04/12:00pm 36.2 37.6 19.6 37 11.1 E 11 19 6 10 1010.0 1009.1 0.0
04/11:30am 34.8 36.6 19.6 40 10.1 ENE 9 19 5 10 1010.3 1009.4 0.0
04/11:00am 35.1 37.4 21.4 45 9.4 SSE 11 20 6 11 1010.8 1010.0 0.0
04/10:30am 35.0 37.4 21.6 45 9.2 S 11 19 6 10 1011.2 1010.4 0.0
04/10:00am 34.2 37.3 22.9 51 7.8 S 11 24 6 13 1011.6 1010.8 0.0
04/09:30am 32.7 35.2 22.5 55 7.0 S 13 20 7 11 1011.6 1010.8 0.0
04/09:00am 31.3 35.4 22.9 61 5.8 SSE 6 11 3 6 1011.4 1010.6 10.0
04/08:30am 29.7 33.8 23.2 68 4.5 S 7 13 4 7 1011.0 1010.2 10.0
04/08:00am 27.9 31.5 23.1 75 3.3 S 9 15 5 8 1010.6 1009.8 10.0
04/07:30am 26.3 30.6 23.6 85 1.9 S 7 9 4 5 1009.9 1009.0 10.0
04/07:00am 25.3 29.7 23.5 90 1.2 SSW 6 9 3 5 1009.4 1008.5 10.0
04/06:30am 25.5 31.2 23.7 90 1.2 CALM 0 0 0 0 1009.1 1008.2 10.0
04/06:00am 25.3 30.9 23.5 90 1.2 CALM 0 0 0 0 1008.6 1007.7 9.8
04/05:30am 25.5 31.3 23.9 91 1.1 CALM 0 0 0 0 1008.2 1007.3 9.8
04/05:00am 25.4 31.0 23.6 90 1.2 CALM 0 0 0 0 1007.9 1007.0 9.8
04/04:30am 25.7 29.9 23.4 87 1.6 SW 7 7 4 4 1007.6 1006.7 9.8
04/04:00am 25.9 30.9 24.5 92 1.0 WSW 6 9 3 5 1007.5 1006.6 9.8
04/03:30am 25.9 32.0 24.5 92 1.0 CALM 0 0 0 0 1007.6 1006.7 9.8
04/03:00am 25.8 31.9 24.4 92 1.0 CALM 0 0 0 0 1008.0 1007.1 9.8
04/02:30am 25.7 31.6 24.1 91 1.1 CALM 0 0 0 0 1008.0 1007.1 9.8
04/02:00am 25.8 31.6 24.0 90 1.2 CALM 0 0 0 0 1008.4 1007.5 9.8
04/01:30am 26.0 31.8 24.0 89 1.4 CALM 0 0 0 0 1009.1 1008.2 9.8
04/01:00am 25.8 30.5 24.0 90 1.2 WSW 6 9 3 5 1009.4 1008.5 9.8
04/12:30am 26.0 29.8 24.0 89 1.4 NW 11 15 6 8 1009.6 1008.7 9.8
04/12:00am 26.1 30.3 24.1 89 1.4 WNW 9 13 5 7 1010.0 1009.1 9.8
 
Date/Time
EST
Temp
°C
App
Temp
°C
Dew
Point
Rel
Hum
%
Delta-T
°C
Wind Press
QNH
hPa
Press
MSL
hPa
Rain
since 9 am
mm
Dir
 
Spd
km/h
Gust
km/h
Spd
kts
Gust
kts
03/11:30pm 26.1 26.7 23.4 85 1.8 NE 26 54 14 29 1010.4 1009.5 7.2
03/11:29pm 26.1 27.0 23.4 85 1.8 ENE 24 54 13 29 1010.6 1009.8 6.2
03/11:27pm 26.2 27.7 23.1 83 2.1 ENE 20 54 11 29 1010.5 1009.7 4.0
03/11:00pm 27.8 34.0 24.6 83 2.2 CALM 0 0 0 0 1009.4 1008.5 2.2
03/10:30pm 28.2 34.4 24.6 81 2.5 CALM 0 0 0 0 1009.2 1008.3 2.2
03/10:00pm 28.4 34.4 24.2 78 2.9 CALM 0 0 0 0 1009.3 1008.4 2.2
03/09:30pm 28.8 34.2 23.9 75 3.4 WNW 2 9 1 5 1008.8 1007.9 2.2
03/09:00pm 29.0 34.3 24.3 76 3.3 NW 4 7 2 4 1008.8 1007.9 2.2
03/08:30pm 29.4 34.2 24.5 75 3.4 NNW 7 9 4 5 1008.5 1007.6 2.2
03/08:00pm 29.8 34.2 24.4 73 3.8 NNW 9 11 5 6 1008.3 1007.4 2.2
03/07:30pm 29.6 35.2 24.9 76 3.3 SSW 4 6 2 3 1007.8 1006.9 2.2
03/07:00pm 30.0 35.6 24.9 74 3.6 SSE 4 7 2 4 1007.4 1006.5 2.2
03/06:30pm 30.3 36.4 24.4 70 4.1 CALM 0 0 0 0 1007.2 1006.3 2.2
03/06:00pm 30.1 36.1 24.9 73 3.7 WNW 2 6 1 3 1007.0 1006.1 2.2
03/05:30pm 30.1 34.4 23.3 67 4.7 NNW 6 9 3 5 1007.0 1006.1 2.2
03/05:00pm 29.5 34.4 24.4 74 3.6 NW 6 9 3 5 1007.1 1006.2 2.2
03/04:30pm 28.8 32.7 24.8 79 2.8 NNW 13 17 7 9 1007.4 1006.5 2.2
03/04:00pm 28.9 28.9 21.7 65 4.9 NE 24 43 13 23 1007.8 1006.9 0.2
03/03:53pm 32.6 33.4 19.1 44 8.9 SE 13 43 7 23 1007.7 1006.8 0.0

Other Formats:

Comma delimited format used in spreadsheet applications
http://www.bom.gov.au/fwo/IDQ60801/IDQ60801.94261.axf

JavaScript Object Notation format (JSON) in row-major order
http://www.bom.gov.au/fwo/IDQ60801/IDQ60801.94261.json